createdAt,value
2018-04-10T00:02:13.552Z,46.57
2018-04-10T00:04:41.455Z,44.77
2018-04-10T00:07:09.099Z,48.13
2018-04-10T00:09:36.718Z,46.03
2018-04-10T00:12:04.303Z,41.97
2018-04-10T00:14:32.034Z,44.87
2018-04-10T00:16:59.644Z,44.37
2018-04-10T00:19:27.288Z,46.80
2018-04-10T00:21:55.048Z,44.97
2018-04-10T00:24:22.665Z,45.27
2018-04-10T00:26:50.325Z,48.77
2018-04-10T00:29:17.980Z,43.40
2018-04-10T00:31:45.896Z,47.47
2018-04-10T00:34:13.557Z,46.97
2018-04-10T00:36:41.406Z,44.60
2018-04-10T00:39:09.030Z,46.40
2018-04-10T00:41:36.705Z,45.13
2018-04-10T00:44:04.309Z,45.30
2018-04-10T00:46:31.971Z,45.80
2018-04-10T00:48:59.600Z,45.67
2018-04-10T00:51:27.291Z,45.70
2018-04-10T00:53:55.059Z,44.90
2018-04-10T00:56:22.654Z,44.97
2018-04-10T00:58:50.354Z,44.40
2018-04-10T01:01:18.254Z,44.80
2018-04-10T01:03:45.928Z,44.63
2018-04-10T01:06:13.644Z,41.93
2018-04-10T01:08:41.229Z,41.80
2018-04-10T01:11:08.854Z,40.40
2018-04-10T01:13:36.826Z,40.83
2018-04-10T01:16:04.472Z,41.77
2018-04-10T01:18:32.504Z,42.87
2018-04-10T01:21:00.152Z,42.97
2018-04-10T01:23:27.921Z,41.00
2018-04-10T01:25:55.665Z,39.53
2018-04-10T01:28:23.540Z,40.27
2018-04-10T01:30:51.538Z,39.53
2018-04-10T01:33:19.175Z,36.13
2018-04-10T01:35:46.812Z,36.27
2018-04-10T01:38:14.462Z,39.47
2018-04-10T01:40:42.400Z,38.47
2018-04-10T01:43:10.053Z,36.87
2018-04-10T01:45:37.675Z,38.33
2018-04-10T01:48:05.295Z,34.77
2018-04-10T01:50:33.023Z,37.60
2018-04-10T01:53:01.069Z,35.60
2018-04-10T01:55:28.724Z,33.67
2018-04-10T01:57:56.334Z,34.97
2018-04-10T02:00:23.947Z,33.00
2018-04-10T02:02:51.581Z,33.40
2018-04-10T02:05:19.215Z,32.40
2018-04-10T02:07:47.089Z,29.00
2018-04-10T02:10:32.056Z,29.60
2018-04-10T02:12:59.873Z,29.50
2018-04-10T02:15:27.530Z,29.07
2018-04-10T02:17:55.179Z,27.47
2018-04-10T02:20:22.787Z,27.77
2018-04-10T02:22:50.378Z,26.57
2018-04-10T02:25:18.030Z,28.93
2018-04-10T02:27:45.739Z,26.67
2018-04-10T02:30:13.514Z,28.07
2018-04-10T02:32:41.137Z,26.20
2018-04-10T02:35:08.750Z,26.77
2018-04-10T02:37:36.515Z,27.27
2018-04-10T02:40:04.145Z,27.63
2018-04-10T02:42:31.948Z,26.33
2018-04-10T02:44:59.616Z,26.20
2018-04-10T02:47:27.301Z,27.60
2018-04-10T02:49:55.034Z,27.63
2018-04-10T02:52:22.704Z,26.63
2018-04-10T02:54:50.317Z,28.10
2018-04-10T02:57:17.972Z,26.93
2018-04-10T02:59:45.604Z,28.40
2018-04-10T03:02:13.236Z,26.60
2018-04-10T03:04:41.121Z,27.07
2018-04-10T03:07:08.835Z,27.23
2018-04-10T03:09:36.520Z,27.80
2018-04-10T03:12:04.263Z,27.63
2018-04-10T03:14:31.923Z,29.50
2018-04-10T03:16:59.543Z,27.80
2018-04-10T03:19:27.260Z,28.30
2018-04-10T03:21:54.948Z,29.33
2018-04-10T03:24:22.557Z,29.30
2018-04-10T03:26:50.266Z,29.40
2018-04-10T03:29:17.867Z,28.50
2018-04-10T03:31:45.833Z,28.43
2018-04-10T03:34:13.629Z,29.13
2018-04-10T03:36:41.260Z,30.83
2018-04-10T03:39:08.956Z,29.53
2018-04-10T03:41:36.615Z,28.47
2018-04-10T03:44:04.281Z,28.43
2018-04-10T03:46:31.964Z,27.63
2018-04-10T03:48:59.589Z,29.60
2018-04-10T03:51:27.201Z,29.67
2018-04-10T03:53:54.845Z,32.63
2018-04-10T03:56:22.770Z,31.13
2018-04-10T03:58:50.407Z,31.50
2018-04-10T04:01:18.023Z,32.43
2018-04-10T04:03:45.695Z,32.00
2018-04-10T04:06:13.419Z,29.93
2018-04-10T04:08:41.033Z,30.67
2018-04-10T04:11:08.619Z,30.47
2018-04-10T04:13:36.248Z,29.90
2018-04-10T04:16:03.962Z,31.13
2018-04-10T04:18:43.286Z,30.97
2018-04-10T04:21:22.641Z,32.47
2018-04-10T04:23:50.605Z,30.67
2018-04-10T04:26:18.677Z,31.03
2018-04-10T04:28:46.293Z,31.97
2018-04-10T04:31:13.922Z,30.10
2018-04-10T04:33:41.665Z,32.80
2018-04-10T04:36:09.333Z,29.50
2018-04-10T04:38:37.292Z,32.80
2018-04-10T04:41:04.993Z,31.87
2018-04-10T04:43:32.703Z,35.03
2018-04-10T04:46:00.374Z,32.13
2018-04-10T04:48:28.306Z,31.70
2018-04-10T04:50:55.894Z,33.30
2018-04-10T04:53:23.609Z,35.50
2018-04-10T04:55:51.472Z,33.50
2018-04-10T04:58:19.127Z,34.73
2018-04-10T05:00:46.770Z,33.93
2018-04-10T05:03:14.375Z,32.77
2018-04-10T05:05:41.985Z,33.63
2018-04-10T05:08:09.734Z,33.00
2018-04-10T05:10:37.362Z,33.13
2018-04-10T05:13:04.994Z,33.40
2018-04-10T05:15:32.579Z,32.80
2018-04-10T05:18:00.221Z,32.20
2018-04-10T05:20:27.824Z,34.33
2018-04-10T05:22:55.707Z,31.00
2018-04-10T05:25:23.360Z,34.33
2018-04-10T05:27:51.180Z,33.90
2018-04-10T05:30:18.849Z,32.40
2018-04-10T05:32:46.439Z,33.73
2018-04-10T05:35:14.074Z,34.53
2018-04-10T05:37:41.732Z,35.63
2018-04-10T05:40:09.336Z,33.20
2018-04-10T05:42:37.338Z,34.90
2018-04-10T05:45:04.967Z,34.50
2018-04-10T05:47:32.561Z,35.63
2018-04-10T05:50:00.541Z,34.90
2018-04-10T05:52:35.722Z,35.37
2018-04-10T05:55:03.379Z,32.90
2018-04-10T05:57:31.106Z,35.70
2018-04-10T05:59:58.832Z,33.40
2018-04-10T06:02:26.442Z,34.90
2018-04-10T06:04:54.039Z,34.80
2018-04-10T06:07:21.660Z,33.63
2018-04-10T06:09:49.347Z,35.10
2018-04-10T06:12:16.948Z,34.77
2018-04-10T06:14:44.939Z,37.77
2018-04-10T06:17:12.573Z,36.23
2018-04-10T06:19:40.183Z,34.77
2018-04-10T06:22:08.096Z,34.97
2018-04-10T06:24:35.689Z,37.30
2018-04-10T06:27:03.458Z,36.30
2018-04-10T06:29:31.412Z,37.50
2018-04-10T06:31:59.494Z,35.27
2018-04-10T06:34:27.097Z,35.77
2018-04-10T06:36:54.744Z,36.90
2018-04-10T06:39:22.346Z,35.63
2018-04-10T06:41:49.985Z,35.60
2018-04-10T06:44:17.722Z,35.67
2018-04-10T06:46:45.394Z,36.93
2018-04-10T06:49:12.992Z,35.43
2018-04-10T06:51:40.621Z,35.53
2018-04-10T06:54:08.223Z,36.53
2018-04-10T06:56:35.839Z,36.90
2018-04-10T06:59:03.585Z,38.40
2018-04-10T07:01:31.223Z,37.60
2018-04-10T07:04:03.622Z,38.40
2018-04-10T07:06:31.325Z,37.10
2018-04-10T07:08:59.035Z,38.10
2018-04-10T07:11:26.642Z,37.27
2018-04-10T07:13:54.635Z,38.87
2018-04-10T07:16:22.639Z,39.37
2018-04-10T07:18:50.242Z,39.13
2018-04-10T07:21:17.891Z,37.17
2018-04-10T07:23:45.514Z,37.70
2018-04-10T07:26:13.107Z,37.90
2018-04-10T07:28:40.754Z,40.07
2018-04-10T07:31:08.538Z,38.50
2018-04-10T07:33:36.136Z,39.97
2018-04-10T07:36:04.039Z,38.47
2018-04-10T07:38:31.651Z,39.57
2018-04-10T07:40:59.269Z,40.13
2018-04-10T07:43:26.951Z,39.33
2018-04-10T07:45:54.531Z,40.37
2018-04-10T07:48:22.114Z,39.57
2018-04-10T07:50:49.808Z,40.50
2018-04-10T07:53:17.434Z,39.40
2018-04-10T07:55:45.014Z,42.10
2018-04-10T07:58:12.641Z,43.60
2018-04-10T08:00:40.285Z,41.20
2018-04-10T08:03:07.865Z,42.53
2018-04-10T08:05:35.480Z,40.23
2018-04-10T08:08:03.144Z,40.50
2018-04-10T08:10:30.761Z,40.83
2018-04-10T08:12:58.665Z,39.50
2018-04-10T08:15:26.637Z,40.90
2018-04-10T08:17:54.257Z,42.73
2018-04-10T08:20:21.899Z,41.83
2018-04-10T08:22:49.491Z,40.70
2018-04-10T08:25:17.101Z,40.47
2018-04-10T08:27:44.747Z,44.10
2018-04-10T08:30:12.611Z,41.90
2018-04-10T08:32:40.229Z,42.73
2018-04-10T08:35:07.887Z,43.30
2018-04-10T08:37:35.486Z,41.43
2018-04-10T08:40:03.151Z,47.20
2018-04-10T08:42:31.052Z,43.17
2018-04-10T08:44:58.723Z,43.97
2018-04-10T08:47:26.308Z,42.60
2018-04-10T08:49:53.943Z,41.93
2018-04-10T08:52:21.534Z,44.47
2018-04-10T08:54:49.207Z,44.63
2018-04-10T08:57:16.798Z,43.23
2018-04-10T08:59:44.393Z,44.10
2018-04-10T09:02:12.028Z,45.00
2018-04-10T09:04:39.662Z,43.17
2018-04-10T09:07:07.306Z,45.30
2018-04-10T09:09:34.892Z,45.40
2018-04-10T09:12:02.760Z,44.47
2018-04-10T09:14:30.352Z,46.33
2018-04-10T09:16:57.991Z,45.13
2018-04-10T09:19:25.662Z,43.63
2018-04-10T09:21:53.347Z,43.67
2018-04-10T09:24:20.945Z,43.53
2018-04-10T09:26:48.857Z,45.93
2018-04-10T09:29:17.381Z,45.67
2018-04-10T09:31:48.332Z,47.20
2018-04-10T09:34:15.965Z,46.60
2018-04-10T09:36:43.557Z,47.50
2018-04-10T09:39:11.188Z,46.67
2018-04-10T09:41:38.774Z,46.47
2018-04-10T09:44:06.388Z,45.20
2018-04-10T09:46:34.082Z,47.47
2018-04-10T09:49:02.043Z,45.57
2018-04-10T09:51:29.714Z,46.73
2018-04-10T09:53:57.331Z,45.43
2018-04-10T09:56:25.048Z,47.97
2018-04-10T09:58:52.701Z,44.17
2018-04-10T10:01:20.291Z,46.00
2018-04-10T10:03:47.967Z,44.50
2018-04-10T10:06:15.659Z,42.43
2018-04-10T10:08:43.263Z,44.90
2018-04-10T10:11:11.358Z,42.50
2018-04-10T10:13:39.055Z,41.20
2018-04-10T10:16:06.641Z,42.27
2018-04-10T10:18:34.285Z,45.27
2018-04-10T10:21:01.943Z,42.30
2018-04-10T10:23:29.592Z,41.40
2018-04-10T10:25:57.186Z,44.13
2018-04-10T10:28:24.800Z,41.87
2018-04-10T10:30:52.651Z,45.40
2018-04-10T10:33:20.250Z,45.23
2018-04-10T10:35:47.878Z,45.30
2018-04-10T10:38:15.494Z,44.17
2018-04-10T10:40:43.073Z,44.50
2018-04-10T10:43:10.724Z,44.63
2018-04-10T10:45:38.402Z,43.67
2018-04-10T10:48:06.002Z,47.80
2018-04-10T10:50:33.634Z,47.33
2018-04-10T10:53:01.240Z,47.00
2018-04-10T10:55:29.234Z,45.93
2018-04-10T10:57:56.829Z,47.50
2018-04-10T11:00:24.831Z,45.73
2018-04-10T11:02:52.448Z,43.83
2018-04-10T11:05:20.088Z,47.10
2018-04-10T11:07:48.048Z,44.93
2018-04-10T11:10:15.696Z,44.10
2018-04-10T11:12:43.284Z,44.93
2018-04-10T11:15:10.920Z,44.33
2018-04-10T11:17:38.562Z,45.17
2018-04-10T11:20:06.311Z,44.30
2018-04-10T11:22:33.904Z,45.10
2018-04-10T11:25:01.963Z,45.97
2018-04-10T11:27:30.243Z,45.50
2018-04-10T11:29:57.888Z,46.10
2018-04-10T11:32:25.558Z,43.70
2018-04-10T11:34:53.280Z,41.23
2018-04-10T11:37:20.894Z,44.67
2018-04-10T11:39:48.497Z,46.17
2018-04-10T11:42:16.420Z,44.27
2018-04-10T11:44:44.105Z,43.63
2018-04-10T11:47:11.759Z,46.30
2018-04-10T11:49:39.358Z,42.50
2018-04-10T11:52:06.984Z,43.50
2018-04-10T11:54:34.838Z,42.43
2018-04-10T11:57:02.698Z,45.03
2018-04-10T11:59:30.407Z,43.47
2018-04-10T12:01:58.019Z,43.40
2018-04-10T12:04:26.004Z,43.77
2018-04-10T12:06:53.966Z,41.33
2018-04-10T12:09:21.618Z,39.90
2018-04-10T12:11:49.493Z,40.83
2018-04-10T12:14:17.077Z,43.47
2018-04-10T12:16:44.704Z,41.70
2018-04-10T12:19:12.324Z,42.60
2018-04-10T12:21:40.024Z,38.37
2018-04-10T12:24:07.905Z,44.60
2018-04-10T12:26:35.929Z,39.90
2018-04-10T12:29:03.530Z,41.23
2018-04-10T12:31:31.185Z,38.83
2018-04-10T12:33:58.844Z,37.63
2018-04-10T12:36:26.437Z,39.80
2018-04-10T12:38:54.037Z,41.00
2018-04-10T12:41:21.648Z,40.37
2018-04-10T12:43:49.263Z,37.17
2018-04-10T12:46:16.892Z,36.97
2018-04-10T12:48:44.827Z,34.13
2018-04-10T12:51:12.425Z,33.23
2018-04-10T12:53:40.043Z,36.40
2018-04-10T12:56:07.700Z,36.67
2018-04-10T12:58:35.338Z,36.27
2018-04-10T13:01:03.205Z,36.20
2018-04-10T13:03:30.783Z,39.80
2018-04-10T13:05:58.438Z,34.93
2018-04-10T13:08:26.391Z,36.27
2018-04-10T13:10:54.006Z,34.53
2018-04-10T13:13:21.648Z,35.50
2018-04-10T13:15:49.636Z,37.37
2018-04-10T13:18:17.493Z,38.40
2018-04-10T13:20:45.114Z,37.17
2018-04-10T13:23:12.730Z,35.70
2018-04-10T13:25:40.697Z,37.03
2018-04-10T13:28:08.306Z,36.63
2018-04-10T13:30:36.003Z,36.60
2018-04-10T13:33:03.672Z,35.83
2018-04-10T13:35:31.302Z,34.07
2018-04-10T13:37:59.128Z,34.53
2018-04-10T13:40:26.741Z,35.43
2018-04-10T13:42:54.415Z,35.00
2018-04-10T13:45:22.047Z,35.67
2018-04-10T13:47:49.766Z,36.17
2018-04-10T13:50:17.383Z,35.63
2018-04-10T13:52:45.032Z,35.13
2018-04-10T13:55:12.622Z,37.27
2018-04-10T13:57:40.463Z,33.20
2018-04-10T14:00:08.098Z,34.73
2018-04-10T14:02:35.739Z,35.13
2018-04-10T14:05:03.400Z,34.13
2018-04-10T14:07:31.035Z,33.40
2018-04-10T14:09:58.639Z,35.00
2018-04-10T14:12:26.647Z,34.83
2018-04-10T14:14:54.298Z,33.70
2018-04-10T14:17:22.017Z,35.63
2018-04-10T14:19:49.678Z,32.90
2018-04-10T14:22:17.338Z,31.07
2018-04-10T14:24:44.953Z,35.20
2018-04-10T14:27:12.580Z,33.30
2018-04-10T14:29:40.198Z,32.80
2018-04-10T14:32:07.865Z,32.70
2018-04-10T14:34:35.534Z,32.20
2018-04-10T14:37:03.314Z,32.53
2018-04-10T14:39:31.008Z,29.50
2018-04-10T14:41:58.655Z,31.07
2018-04-10T14:44:26.344Z,33.40
2018-04-10T14:46:58.081Z,32.00
2018-04-10T14:49:29.507Z,31.77
2018-04-10T14:51:57.551Z,31.53
2018-04-10T14:54:25.144Z,31.93
2018-04-10T14:56:53.006Z,29.10
2018-04-10T14:59:20.651Z,30.57
2018-04-10T15:01:48.293Z,30.60
2018-04-10T15:04:15.907Z,31.70
2018-04-10T15:06:43.556Z,30.70
2018-04-10T15:09:11.167Z,30.50
2018-04-10T15:11:38.881Z,29.13
2018-04-10T15:14:06.470Z,28.83
2018-04-10T15:16:34.480Z,26.13
2018-04-10T15:19:02.169Z,26.27
2018-04-10T15:21:29.770Z,26.20
2018-04-10T15:23:57.488Z,24.50
2018-04-10T15:26:25.135Z,24.43
2018-04-10T15:28:52.732Z,23.17
2018-04-10T15:31:20.339Z,25.10
2018-04-10T15:33:48.018Z,33.07
2018-04-10T15:36:15.683Z,34.73
2018-04-10T15:38:43.796Z,31.80
2018-04-10T15:41:11.395Z,31.17
2018-04-10T15:43:39.005Z,30.00
2018-04-10T15:46:06.720Z,33.67
2018-04-10T15:48:34.426Z,34.00
2018-04-10T15:51:02.043Z,35.03
2018-04-10T15:53:29.733Z,32.87
2018-04-10T15:55:57.367Z,32.30
2018-04-10T15:58:24.990Z,32.00
2018-04-10T16:00:52.869Z,33.33
2018-04-10T16:03:20.641Z,30.93
2018-04-10T16:05:48.226Z,29.93
2018-04-10T16:08:15.870Z,31.70
2018-04-10T16:10:43.533Z,28.97
2018-04-10T16:13:11.132Z,30.90
2018-04-10T16:15:38.835Z,30.83
2018-04-10T16:18:06.496Z,32.90
2018-04-10T16:20:34.096Z,31.10
2018-04-10T16:23:01.706Z,32.40
2018-04-10T16:25:29.425Z,34.00
2018-04-10T16:27:57.033Z,36.33
2018-04-10T16:30:24.630Z,35.10
2018-04-10T16:32:52.313Z,33.73
2018-04-10T16:35:19.917Z,34.00
2018-04-10T16:37:47.664Z,36.17
2018-04-10T16:40:15.604Z,36.00
2018-04-10T16:42:43.518Z,34.87
2018-04-10T16:45:11.152Z,32.53
2018-04-10T16:47:38.761Z,31.77
2018-04-10T16:50:06.757Z,33.30
2018-04-10T16:52:34.692Z,32.50
2018-04-10T16:55:02.291Z,32.70
2018-04-10T16:57:29.913Z,31.83
2018-04-10T16:59:57.520Z,33.57
2018-04-10T17:02:25.233Z,30.63
2018-04-10T17:04:52.832Z,32.93
2018-04-10T17:07:20.483Z,32.23
2018-04-10T17:09:48.184Z,32.23
2018-04-10T17:12:15.792Z,31.60
2018-04-10T17:14:43.490Z,34.13
2018-04-10T17:17:11.180Z,31.33
2018-04-10T17:19:38.779Z,30.67
2018-04-10T17:22:06.655Z,32.97
2018-04-10T17:24:34.304Z,31.70
2018-04-10T17:27:01.925Z,32.67
2018-04-10T17:29:29.547Z,31.30
2018-04-10T17:31:58.176Z,32.30
2018-04-10T17:34:25.839Z,31.40
2018-04-10T17:36:53.447Z,30.30
2018-04-10T17:39:21.160Z,29.47
2018-04-10T17:41:48.835Z,31.23
2018-04-10T17:44:16.521Z,30.60
2018-04-10T17:46:44.290Z,30.00
2018-04-10T17:49:11.891Z,30.00
2018-04-10T17:51:39.589Z,28.80
2018-04-10T17:54:07.328Z,31.47
2018-04-10T17:56:34.971Z,29.57
2018-04-10T17:59:02.575Z,28.03
2018-04-10T18:01:30.282Z,28.90
2018-04-10T18:03:57.972Z,27.83
2018-04-10T18:06:25.579Z,28.57
2018-04-10T18:08:53.225Z,27.50
2018-04-10T18:11:20.808Z,27.13
2018-04-10T18:13:50.895Z,28.70
2018-04-10T18:16:18.487Z,25.97
2018-04-10T18:18:46.343Z,26.77
2018-04-10T18:21:14.114Z,28.10
2018-04-10T18:23:41.936Z,27.77
2018-04-10T18:26:09.619Z,28.17
2018-04-10T18:28:37.325Z,25.47
2018-04-10T18:31:04.941Z,27.10
2018-04-10T18:33:32.527Z,27.73
2018-04-10T18:36:00.191Z,27.20
2018-04-10T18:38:27.822Z,25.50
2018-04-10T18:40:55.485Z,27.57
2018-04-10T18:43:23.087Z,25.83
2018-04-10T18:45:51.036Z,25.50
2018-04-10T18:48:18.636Z,24.17
2018-04-10T18:50:46.297Z,23.80
2018-04-10T18:53:14.010Z,25.90
2018-04-10T18:55:41.630Z,25.00
2018-04-10T18:58:09.256Z,23.83
2018-04-10T19:00:36.846Z,25.50
2018-04-10T19:03:04.884Z,24.60
2018-04-10T19:05:32.478Z,23.10
2018-04-10T19:08:00.095Z,24.30
2018-04-10T19:10:27.745Z,24.60
2018-04-10T19:12:55.392Z,24.00
2018-04-10T19:15:23.070Z,24.53
2018-04-10T19:17:50.770Z,24.60
2018-04-10T19:20:18.718Z,23.73
2018-04-10T19:22:46.363Z,24.00
2018-04-10T19:25:13.975Z,25.37
2018-04-10T19:27:42.010Z,27.23
2018-04-10T19:30:09.612Z,24.73
2018-04-10T19:32:37.218Z,26.13
2018-04-10T19:35:04.886Z,25.60
2018-04-10T19:37:32.769Z,23.80
2018-04-10T19:40:00.356Z,23.70
2018-04-10T19:42:27.976Z,20.83
2018-04-10T19:44:55.590Z,22.43
2018-04-10T19:47:23.243Z,22.90
2018-04-10T19:49:50.919Z,24.67
2018-04-10T19:52:19.870Z,24.50
2018-04-10T19:54:47.843Z,23.10
2018-04-10T19:57:15.905Z,24.47
2018-04-10T19:59:43.639Z,23.10
2018-04-10T20:02:11.713Z,23.60
2018-04-10T20:04:39.294Z,23.80
2018-04-10T20:07:06.881Z,23.03
2018-04-10T20:09:34.551Z,24.13
2018-04-10T20:12:02.207Z,25.07
2018-04-10T20:14:30.159Z,22.80
2018-04-10T20:16:57.878Z,21.93
2018-04-10T20:19:25.550Z,21.50
2018-04-10T20:21:53.147Z,23.50
2018-04-10T20:24:21.046Z,23.87
2018-04-10T20:26:48.642Z,23.07
2018-04-10T20:29:16.221Z,23.70
2018-04-10T20:31:43.849Z,24.57
2018-04-10T20:34:11.464Z,22.20
2018-04-10T20:36:39.429Z,21.57
2018-04-10T20:39:07.058Z,23.20
2018-04-10T20:41:35.573Z,22.83
2018-04-10T20:44:03.520Z,24.73
2018-04-10T20:46:31.121Z,24.77
2018-04-10T20:48:58.770Z,25.47
2018-04-10T20:51:26.419Z,21.63
2018-04-10T20:53:54.413Z,21.50
2018-04-10T20:56:22.001Z,20.93
2018-04-10T20:58:49.599Z,22.10
2018-04-10T21:01:17.283Z,24.60
2018-04-10T21:03:45.135Z,22.57
2018-04-10T21:06:12.750Z,22.43
2018-04-10T21:08:40.357Z,24.37
2018-04-10T21:11:07.993Z,23.30
2018-04-10T21:13:36.592Z,22.00
2018-04-10T21:16:04.283Z,23.23
2018-04-10T21:18:31.870Z,21.87
2018-04-10T21:20:59.484Z,21.93
2018-04-10T21:23:27.171Z,21.93
2018-04-10T21:25:55.086Z,21.40
2018-04-10T21:28:22.676Z,20.87
2018-04-10T21:30:50.368Z,22.60
2018-04-10T21:33:18.390Z,24.40
2018-04-10T21:35:46.014Z,22.90
2018-04-10T21:38:13.598Z,22.80
2018-04-10T21:40:41.229Z,21.00
2018-04-10T21:43:14.438Z,21.40
2018-04-10T21:45:42.705Z,22.00
2018-04-10T21:48:10.320Z,20.90
2018-04-10T21:50:37.955Z,21.87
2018-04-10T21:53:05.652Z,22.57
2018-04-10T21:55:33.626Z,21.67
2018-04-10T21:58:01.323Z,23.37
2018-04-10T22:00:29.072Z,22.87
2018-04-10T22:02:56.686Z,22.67
2018-04-10T22:05:24.567Z,22.80
2018-04-10T22:07:52.216Z,25.13
2018-04-10T22:10:19.803Z,21.20
2018-04-10T22:12:47.463Z,21.87
2018-04-10T22:15:15.063Z,21.77
2018-04-10T22:17:42.659Z,21.27
2018-04-10T22:20:10.504Z,23.13
2018-04-10T22:22:43.577Z,21.80
2018-04-10T22:25:11.451Z,23.30
2018-04-10T22:27:39.148Z,23.70
2018-04-10T22:30:06.750Z,22.87
2018-04-10T22:32:34.350Z,22.83
2018-04-10T22:35:01.969Z,23.50
2018-04-10T22:37:29.625Z,22.73
2018-04-10T22:39:57.233Z,23.03
2018-04-10T22:42:24.971Z,22.23
2018-04-10T22:44:52.671Z,22.13
2018-04-10T22:47:20.301Z,23.03
2018-04-10T22:49:48.327Z,24.30
2018-04-10T22:52:15.993Z,22.70
2018-04-10T22:54:43.949Z,23.93
2018-04-10T22:57:11.582Z,22.53
2018-04-10T22:59:39.193Z,24.27
2018-04-10T23:02:06.857Z,22.80
2018-04-10T23:04:34.457Z,24.43
2018-04-10T23:07:02.062Z,23.17
2018-04-10T23:09:29.944Z,23.80
2018-04-10T23:11:57.923Z,25.00
2018-04-10T23:14:25.735Z,24.47
2018-04-10T23:16:53.676Z,23.10
2018-04-10T23:19:21.630Z,25.77
2018-04-10T23:21:49.242Z,25.33
2018-04-10T23:24:16.980Z,24.53
2018-04-10T23:26:44.726Z,24.27
2018-04-10T23:29:12.591Z,26.47
2018-04-10T23:31:40.377Z,24.77
2018-04-10T23:34:08.103Z,22.83
2018-04-10T23:36:35.818Z,24.50
2018-04-10T23:39:03.508Z,23.77
2018-04-10T23:41:31.275Z,24.23
2018-04-10T23:43:59.396Z,25.30
2018-04-10T23:46:27.189Z,22.53
2018-04-10T23:48:54.932Z,26.80
2018-04-10T23:51:22.562Z,24.47
2018-04-10T23:53:50.178Z,25.23
2018-04-10T23:56:17.872Z,24.83
2018-04-10T23:58:45.593Z,26.40
